sensor_id;sensor_type;location;lat;lon;timestamp;temperature;humidity
52058;DHT22;38063;53.210;6.504;2023-04-03T00:00:41;3.00;99.90
52058;DHT22;38063;53.210;6.504;2023-04-03T00:03:07;3.00;99.90
52058;DHT22;38063;53.210;6.504;2023-04-03T00:05:33;2.90;99.90
52058;DHT22;38063;53.210;6.504;2023-04-03T00:07:58;2.90;99.90
52058;DHT22;38063;53.210;6.504;2023-04-03T00:10:24;2.90;99.90
52058;DHT22;38063;53.210;6.504;2023-04-03T00:12:50;2.90;99.90
52058;DHT22;38063;53.210;6.504;2023-04-03T00:15:16;2.90;99.90
52058;DHT22;38063;53.210;6.504;2023-04-03T00:17:41;2.90;99.90
52058;DHT22;38063;53.210;6.504;2023-04-03T00:20:08;2.80;99.90
52058;DHT22;38063;53.210;6.504;2023-04-03T00:22:33;2.80;99.90
52058;DHT22;38063;53.210;6.504;2023-04-03T00:24:59;2.70;99.90
52058;DHT22;38063;53.210;6.504;2023-04-03T00:27:25;2.80;99.90
52058;DHT22;38063;53.210;6.504;2023-04-03T00:29:50;2.70;99.90
52058;DHT22;38063;53.210;6.504;2023-04-03T00:32:16;2.70;99.90
52058;DHT22;38063;53.210;6.504;2023-04-03T00:34:42;2.70;99.90
52058;DHT22;38063;53.210;6.504;2023-04-03T00:37:07;2.60;99.90
52058;DHT22;38063;53.210;6.504;2023-04-03T00:39:33;2.60;99.90
52058;DHT22;38063;53.210;6.504;2023-04-03T00:41:58;2.60;99.90
52058;DHT22;38063;53.210;6.504;2023-04-03T00:47:00;2.50;99.90
52058;DHT22;38063;53.210;6.504;2023-04-03T00:49:26;2.50;99.90
52058;DHT22;38063;53.210;6.504;2023-04-03T00:51:52;2.50;99.90
52058;DHT22;38063;53.210;6.504;2023-04-03T00:54:18;2.50;99.90
52058;DHT22;38063;53.210;6.504;2023-04-03T00:56:44;2.40;99.90
52058;DHT22;38063;53.210;6.504;2023-04-03T00:59:14;2.40;99.90
52058;DHT22;38063;53.210;6.504;2023-04-03T01:01:42;2.40;99.90
52058;DHT22;38063;53.210;6.504;2023-04-03T01:06:52;2.40;99.90
52058;DHT22;38063;53.210;6.504;2023-04-03T01:09:18;2.40;99.90
52058;DHT22;38063;53.210;6.504;2023-04-03T01:11:43;2.40;99.90
52058;DHT22;38063;53.210;6.504;2023-04-03T01:14:09;2.30;99.90
52058;DHT22;38063;53.210;6.504;2023-04-03T01:16:34;2.20;99.90
52058;DHT22;38063;53.210;6.504;2023-04-03T01:19:01;2.30;99.90
52058;DHT22;38063;53.210;6.504;2023-04-03T01:22:10;2.20;99.90
52058;DHT22;38063;53.210;6.504;2023-04-03T01:24:37;2.20;99.90
52058;DHT22;38063;53.210;6.504;2023-04-03T01:27:06;2.20;99.90
52058;DHT22;38063;53.210;6.504;2023-04-03T01:29:32;2.10;99.90
52058;DHT22;38063;53.210;6.504;2023-04-03T01:31:59;2.10;99.90
52058;DHT22;38063;53.210;6.504;2023-04-03T01:34:27;2.10;99.90
52058;DHT22;38063;53.210;6.504;2023-04-03T01:36:54;2.60;99.90
52058;DHT22;38063;53.210;6.504;2023-04-03T01:39:20;2.00;99.90
52058;DHT22;38063;53.210;6.504;2023-04-03T01:41:47;2.00;99.90
52058;DHT22;38063;53.210;6.504;2023-04-03T01:44:12;2.00;99.90
52058;DHT22;38063;53.210;6.504;2023-04-03T01:46:38;1.90;99.90
52058;DHT22;38063;53.210;6.504;2023-04-03T01:49:04;2.00;99.90
52058;DHT22;38063;53.210;6.504;2023-04-03T01:51:30;1.90;99.90
52058;DHT22;38063;53.210;6.504;2023-04-03T01:53:56;1.90;99.90
52058;DHT22;38063;53.210;6.504;2023-04-03T01:56:22;1.80;99.90
52058;DHT22;38063;53.210;6.504;2023-04-03T01:58:48;1.80;99.90
52058;DHT22;38063;53.210;6.504;2023-04-03T02:01:13;1.80;99.90
52058;DHT22;38063;53.210;6.504;2023-04-03T02:03:40;1.80;99.90
52058;DHT22;38063;53.210;6.504;2023-04-03T02:06:06;1.70;99.90
52058;DHT22;38063;53.210;6.504;2023-04-03T02:08:32;1.70;99.90
52058;DHT22;38063;53.210;6.504;2023-04-03T02:10:57;1.70;99.90
52058;DHT22;38063;53.210;6.504;2023-04-03T02:13:23;1.70;99.90
52058;DHT22;38063;53.210;6.504;2023-04-03T02:15:49;1.60;99.90
52058;DHT22;38063;53.210;6.504;2023-04-03T02:18:14;1.60;99.90
52058;DHT22;38063;53.210;6.504;2023-04-03T02:20:40;1.60;99.90
52058;DHT22;38063;53.210;6.504;2023-04-03T02:23:06;1.60;99.90
52058;DHT22;38063;53.210;6.504;2023-04-03T02:25:32;1.50;99.90
52058;DHT22;38063;53.210;6.504;2023-04-03T02:27:58;1.50;99.90
52058;DHT22;38063;53.210;6.504;2023-04-03T02:30:24;1.50;99.90
52058;DHT22;38063;53.210;6.504;2023-04-03T02:32:49;1.40;99.90
52058;DHT22;38063;53.210;6.504;2023-04-03T02:35:15;1.40;99.90
52058;DHT22;38063;53.210;6.504;2023-04-03T02:37:41;1.40;99.90
52058;DHT22;38063;53.210;6.504;2023-04-03T02:40:07;1.30;99.90
52058;DHT22;38063;53.210;6.504;2023-04-03T02:42:33;1.40;99.90
52058;DHT22;38063;53.210;6.504;2023-04-03T02:44:59;1.30;99.90
52058;DHT22;38063;53.210;6.504;2023-04-03T02:47:26;1.30;99.90
52058;DHT22;38063;53.210;6.504;2023-04-03T02:49:52;1.30;99.90
52058;DHT22;38063;53.210;6.504;2023-04-03T02:52:18;1.20;99.90
52058;DHT22;38063;53.210;6.504;2023-04-03T02:54:44;1.20;99.90
52058;DHT22;38063;53.210;6.504;2023-04-03T02:57:10;1.20;99.90
52058;DHT22;38063;53.210;6.504;2023-04-03T02:59:36;1.10;99.90
52058;DHT22;38063;53.210;6.504;2023-04-03T03:02:02;1.10;99.90
52058;DHT22;38063;53.210;6.504;2023-04-03T03:04:27;1.10;99.90
52058;DHT22;38063;53.210;6.504;2023-04-03T03:06:53;1.10;99.90
52058;DHT22;38063;53.210;6.504;2023-04-03T03:09:19;1.10;99.90
52058;DHT22;38063;53.210;6.504;2023-04-03T03:11:44;1.00;99.90
52058;DHT22;38063;53.210;6.504;2023-04-03T03:14:10;1.00;99.90
52058;DHT22;38063;53.210;6.504;2023-04-03T03:16:36;1.00;99.90
52058;DHT22;38063;53.210;6.504;2023-04-03T03:19:02;1.00;99.90
52058;DHT22;38063;53.210;6.504;2023-04-03T03:21:28;1.70;99.90
52058;DHT22;38063;53.210;6.504;2023-04-03T03:23:53;1.00;99.90
52058;DHT22;38063;53.210;6.504;2023-04-03T03:26:19;1.00;99.90
52058;DHT22;38063;53.210;6.504;2023-04-03T03:28:45;1.00;99.90
52058;DHT22;38063;53.210;6.504;2023-04-03T03:31:11;0.90;99.90
52058;DHT22;38063;53.210;6.504;2023-04-03T03:33:37;0.90;99.90
52058;DHT22;38063;53.210;6.504;2023-04-03T03:36:03;0.90;99.90
52058;DHT22;38063;53.210;6.504;2023-04-03T03:38:29;0.90;99.90
52058;DHT22;38063;53.210;6.504;2023-04-03T03:40:55;0.80;99.90
52058;DHT22;38063;53.210;6.504;2023-04-03T03:43:20;0.80;99.90
52058;DHT22;38063;53.210;6.504;2023-04-03T03:45:50;0.80;99.90
52058;DHT22;38063;53.210;6.504;2023-04-03T03:48:16;0.80;99.90
52058;DHT22;38063;53.210;6.504;2023-04-03T03:50:42;0.80;99.90
52058;DHT22;38063;53.210;6.504;2023-04-03T03:53:08;0.80;99.90
52058;DHT22;38063;53.210;6.504;2023-04-03T03:55:33;0.80;99.90
52058;DHT22;38063;53.210;6.504;2023-04-03T03:57:59;0.80;99.90
52058;DHT22;38063;53.210;6.504;2023-04-03T04:00:26;0.80;99.90
52058;DHT22;38063;53.210;6.504;2023-04-03T04:02:52;0.70;99.90
52058;DHT22;38063;53.210;6.504;2023-04-03T04:05:18;0.70;99.90
52058;DHT22;38063;53.210;6.504;2023-04-03T04:07:44;0.70;99.90
52058;DHT22;38063;53.210;6.504;2023-04-03T04:10:09;0.70;99.90
52058;DHT22;38063;53.210;6.504;2023-04-03T04:12:35;0.70;99.90
52058;DHT22;38063;53.210;6.504;2023-04-03T04:15:02;1.30;99.90
52058;DHT22;38063;53.210;6.504;2023-04-03T04:17:30;0.70;99.90
52058;DHT22;38063;53.210;6.504;2023-04-03T04:19:56;0.70;99.90
52058;DHT22;38063;53.210;6.504;2023-04-03T04:22:22;0.70;99.90
52058;DHT22;38063;53.210;6.504;2023-04-03T04:24:47;0.80;99.90
52058;DHT22;38063;53.210;6.504;2023-04-03T04:27:13;0.60;99.90
52058;DHT22;38063;53.210;6.504;2023-04-03T04:29:39;0.60;99.90
52058;DHT22;38063;53.210;6.504;2023-04-03T04:32:04;0.50;99.90
52058;DHT22;38063;53.210;6.504;2023-04-03T04:34:30;0.50;99.90
52058;DHT22;38063;53.210;6.504;2023-04-03T04:36:56;1.30;99.90
52058;DHT22;38063;53.210;6.504;2023-04-03T04:39:22;0.50;99.90
52058;DHT22;38063;53.210;6.504;2023-04-03T04:41:48;1.00;99.90
52058;DHT22;38063;53.210;6.504;2023-04-03T04:44:13;0.50;99.90
52058;DHT22;38063;53.210;6.504;2023-04-03T04:46:39;0.50;99.90
52058;DHT22;38063;53.210;6.504;2023-04-03T04:49:05;0.50;99.90
52058;DHT22;38063;53.210;6.504;2023-04-03T04:51:31;0.40;99.90
52058;DHT22;38063;53.210;6.504;2023-04-03T04:53:56;0.40;99.90
52058;DHT22;38063;53.210;6.504;2023-04-03T04:56:22;0.40;99.90
52058;DHT22;38063;53.210;6.504;2023-04-03T04:58:48;0.40;99.90
52058;DHT22;38063;53.210;6.504;2023-04-03T05:01:13;0.40;99.90
52058;DHT22;38063;53.210;6.504;2023-04-03T05:03:39;0.40;99.90
52058;DHT22;38063;53.210;6.504;2023-04-03T05:06:05;2.10;99.90
52058;DHT22;38063;53.210;6.504;2023-04-03T05:08:31;0.40;99.90
52058;DHT22;38063;53.210;6.504;2023-04-03T05:10:57;0.40;99.90
52058;DHT22;38063;53.210;6.504;2023-04-03T05:13:22;0.30;99.90
52058;DHT22;38063;53.210;6.504;2023-04-03T05:15:48;0.50;99.90
52058;DHT22;38063;53.210;6.504;2023-04-03T05:18:14;0.30;99.90
52058;DHT22;38063;53.210;6.504;2023-04-03T05:20:39;0.30;99.90
52058;DHT22;38063;53.210;6.504;2023-04-03T05:23:05;0.30;99.90
52058;DHT22;38063;53.210;6.504;2023-04-03T05:25:31;0.30;99.90
52058;DHT22;38063;53.210;6.504;2023-04-03T05:27:57;0.30;99.90
52058;DHT22;38063;53.210;6.504;2023-04-03T05:30:23;0.20;99.90
52058;DHT22;38063;53.210;6.504;2023-04-03T05:32:48;0.20;99.90
52058;DHT22;38063;53.210;6.504;2023-04-03T05:35:14;0.20;99.90
52058;DHT22;38063;53.210;6.504;2023-04-03T05:37:40;0.20;99.90
52058;DHT22;38063;53.210;6.504;2023-04-03T05:40:07;0.30;99.90
52058;DHT22;38063;53.210;6.504;2023-04-03T05:42:33;0.30;99.90
52058;DHT22;38063;53.210;6.504;2023-04-03T05:44:59;0.30;99.90
52058;DHT22;38063;53.210;6.504;2023-04-03T05:47:25;0.30;99.90
52058;DHT22;38063;53.210;6.504;2023-04-03T05:49:51;0.30;99.90
52058;DHT22;38063;53.210;6.504;2023-04-03T05:52:28;1.40;99.90
52058;DHT22;38063;53.210;6.504;2023-04-03T05:54:54;0.40;99.90
52058;DHT22;38063;53.210;6.504;2023-04-03T05:57:20;0.40;99.90
52058;DHT22;38063;53.210;6.504;2023-04-03T05:59:46;0.40;99.90
52058;DHT22;38063;53.210;6.504;2023-04-03T06:02:18;0.40;99.90
52058;DHT22;38063;53.210;6.504;2023-04-03T06:04:44;0.40;99.90
52058;DHT22;38063;53.210;6.504;2023-04-03T06:07:24;0.40;99.90
52058;DHT22;38063;53.210;6.504;2023-04-03T06:09:52;0.50;99.90
52058;DHT22;38063;53.210;6.504;2023-04-03T06:12:18;0.50;99.90
52058;DHT22;38063;53.210;6.504;2023-04-03T06:14:44;0.50;99.90
52058;DHT22;38063;53.210;6.504;2023-04-03T06:17:10;0.70;99.90
52058;DHT22;38063;53.210;6.504;2023-04-03T06:19:37;0.60;99.90
52058;DHT22;38063;53.210;6.504;2023-04-03T06:22:03;0.60;99.90
52058;DHT22;38063;53.210;6.504;2023-04-03T06:24:29;0.70;99.90
52058;DHT22;38063;53.210;6.504;2023-04-03T06:26:56;0.70;99.90
52058;DHT22;38063;53.210;6.504;2023-04-03T06:29:22;0.70;99.90
52058;DHT22;38063;53.210;6.504;2023-04-03T06:31:49;0.80;99.90
52058;DHT22;38063;53.210;6.504;2023-04-03T06:34:15;0.80;99.90
52058;DHT22;38063;53.210;6.504;2023-04-03T06:36:42;0.90;99.90
52058;DHT22;38063;53.210;6.504;2023-04-03T06:39:16;0.90;99.90
52058;DHT22;38063;53.210;6.504;2023-04-03T06:41:43;0.90;99.90
52058;DHT22;38063;53.210;6.504;2023-04-03T06:44:09;1.00;99.90
52058;DHT22;38063;53.210;6.504;2023-04-03T06:46:37;1.00;99.90
52058;DHT22;38063;53.210;6.504;2023-04-03T06:49:03;1.00;99.90
52058;DHT22;38063;53.210;6.504;2023-04-03T06:51:30;1.10;99.90
52058;DHT22;38063;53.210;6.504;2023-04-03T06:53:58;1.10;99.90
52058;DHT22;38063;53.210;6.504;2023-04-03T06:56:25;1.20;99.90
52058;DHT22;38063;53.210;6.504;2023-04-03T06:58:52;1.20;99.90
52058;DHT22;38063;53.210;6.504;2023-04-03T07:01:20;1.30;99.90
52058;DHT22;38063;53.210;6.504;2023-04-03T07:03:47;1.40;99.90
52058;DHT22;38063;53.210;6.504;2023-04-03T07:06:14;1.40;99.90
52058;DHT22;38063;53.210;6.504;2023-04-03T07:08:41;1.50;99.90
52058;DHT22;38063;53.210;6.504;2023-04-03T07:11:08;1.60;99.90
52058;DHT22;38063;53.210;6.504;2023-04-03T07:13:34;1.70;99.90
52058;DHT22;38063;53.210;6.504;2023-04-03T07:16:00;1.70;99.90
52058;DHT22;38063;53.210;6.504;2023-04-03T07:18:26;1.80;99.90
52058;DHT22;38063;53.210;6.504;2023-04-03T07:20:52;1.90;99.90
52058;DHT22;38063;53.210;6.504;2023-04-03T07:23:18;2.00;99.90
52058;DHT22;38063;53.210;6.504;2023-04-03T07:25:48;2.00;99.90
52058;DHT22;38063;53.210;6.504;2023-04-03T07:28:14;2.10;99.90
52058;DHT22;38063;53.210;6.504;2023-04-03T07:30:45;2.20;99.90
52058;DHT22;38063;53.210;6.504;2023-04-03T07:33:12;2.20;99.90
52058;DHT22;38063;53.210;6.504;2023-04-03T07:35:39;2.30;99.90
52058;DHT22;38063;53.210;6.504;2023-04-03T07:38:05;2.50;99.90
52058;DHT22;38063;53.210;6.504;2023-04-03T07:40:31;2.60;99.90
52058;DHT22;38063;53.210;6.504;2023-04-03T07:42:56;2.70;99.90
52058;DHT22;38063;53.210;6.504;2023-04-03T07:45:23;2.80;99.90
52058;DHT22;38063;53.210;6.504;2023-04-03T07:47:49;3.10;99.90
52058;DHT22;38063;53.210;6.504;2023-04-03T07:50:15;3.10;99.90
52058;DHT22;38063;53.210;6.504;2023-04-03T07:52:42;3.20;99.90
52058;DHT22;38063;53.210;6.504;2023-04-03T07:55:08;3.30;99.90
52058;DHT22;38063;53.210;6.504;2023-04-03T07:57:34;3.50;99.90
52058;DHT22;38063;53.210;6.504;2023-04-03T07:59:59;3.70;99.90
52058;DHT22;38063;53.210;6.504;2023-04-03T08:02:25;3.90;99.90
52058;DHT22;38063;53.210;6.504;2023-04-03T08:04:51;4.10;99.90
52058;DHT22;38063;53.210;6.504;2023-04-03T08:07:16;4.30;99.90
52058;DHT22;38063;53.210;6.504;2023-04-03T08:09:42;4.50;99.90
52058;DHT22;38063;53.210;6.504;2023-04-03T08:12:07;4.60;99.90
52058;DHT22;38063;53.210;6.504;2023-04-03T08:14:33;4.70;99.90
52058;DHT22;38063;53.210;6.504;2023-04-03T08:17:02;4.90;99.90
52058;DHT22;38063;53.210;6.504;2023-04-03T08:19:30;5.10;99.90
52058;DHT22;38063;53.210;6.504;2023-04-03T08:21:56;5.30;99.90
52058;DHT22;38063;53.210;6.504;2023-04-03T08:24:24;5.50;99.90
52058;DHT22;38063;53.210;6.504;2023-04-03T08:26:50;5.70;99.90
52058;DHT22;38063;53.210;6.504;2023-04-03T08:29:16;5.70;99.90
52058;DHT22;38063;53.210;6.504;2023-04-03T08:31:41;5.90;99.90
52058;DHT22;38063;53.210;6.504;2023-04-03T08:34:07;6.00;99.90
52058;DHT22;38063;53.210;6.504;2023-04-03T08:36:34;6.20;99.90
52058;DHT22;38063;53.210;6.504;2023-04-03T08:38:59;6.30;99.90
52058;DHT22;38063;53.210;6.504;2023-04-03T08:44:38;6.50;99.90
52058;DHT22;38063;53.210;6.504;2023-04-03T08:47:34;6.70;99.90
52058;DHT22;38063;53.210;6.504;2023-04-03T08:50:07;6.90;99.90
52058;DHT22;38063;53.210;6.504;2023-04-03T08:52:42;7.00;99.90
52058;DHT22;38063;53.210;6.504;2023-04-03T08:55:23;7.20;99.90
52058;DHT22;38063;53.210;6.504;2023-04-03T09:00:28;7.60;99.90
52058;DHT22;38063;53.210;6.504;2023-04-03T09:02:56;7.70;99.90
52058;DHT22;38063;53.210;6.504;2023-04-03T09:05:45;7.80;99.90
52058;DHT22;38063;53.210;6.504;2023-04-03T09:10:44;8.20;99.90
52058;DHT22;38063;53.210;6.504;2023-04-03T09:13:24;8.30;99.90
52058;DHT22;38063;53.210;6.504;2023-04-03T09:15:53;8.30;99.10
52058;DHT22;38063;53.210;6.504;2023-04-03T09:18:23;8.50;98.20
52058;DHT22;38063;53.210;6.504;2023-04-03T09:21:04;8.60;97.60
52058;DHT22;38063;53.210;6.504;2023-04-03T09:24:00;8.70;96.80
52058;DHT22;38063;53.210;6.504;2023-04-03T09:26:31;9.00;94.90
52058;DHT22;38063;53.210;6.504;2023-04-03T09:29:04;8.90;96.40
52058;DHT22;38063;53.210;6.504;2023-04-03T09:31:37;9.00;96.30
52058;DHT22;38063;53.210;6.504;2023-04-03T09:34:08;9.20;95.60
52058;DHT22;38063;53.210;6.504;2023-04-03T09:36:44;9.30;95.70
52058;DHT22;38063;53.210;6.504;2023-04-03T09:39:19;9.40;93.70
52058;DHT22;38063;53.210;6.504;2023-04-03T09:42:11;9.60;94.20
52058;DHT22;38063;53.210;6.504;2023-04-03T09:44:40;9.70;93.30
52058;DHT22;38063;53.210;6.504;2023-04-03T09:47:24;9.90;94.50
52058;DHT22;38063;53.210;6.504;2023-04-03T09:49:50;9.80;92.60
52058;DHT22;38063;53.210;6.504;2023-04-03T09:52:23;10.20;93.80
52058;DHT22;38063;53.210;6.504;2023-04-03T09:54:50;10.30;92.90
52058;DHT22;38063;53.210;6.504;2023-04-03T09:57:15;10.40;92.90
52058;DHT22;38063;53.210;6.504;2023-04-03T09:59:57;10.50;92.70
52058;DHT22;38063;53.210;6.504;2023-04-03T10:05:04;10.80;90.80
52058;DHT22;38063;53.210;6.504;2023-04-03T10:07:35;10.90;91.10
52058;DHT22;38063;53.210;6.504;2023-04-03T10:12:40;11.10;89.90
52058;DHT22;38063;53.210;6.504;2023-04-03T10:15:16;11.20;90.80
52058;DHT22;38063;53.210;6.504;2023-04-03T10:17:56;11.40;89.10
52058;DHT22;38063;53.210;6.504;2023-04-03T10:23:33;11.50;88.40
52058;DHT22;38063;53.210;6.504;2023-04-03T10:31:28;11.70;85.50
52058;DHT22;38063;53.210;6.504;2023-04-03T10:34:19;11.90;84.40
52058;DHT22;38063;53.210;6.504;2023-04-03T10:37:14;12.00;80.50
52058;DHT22;38063;53.210;6.504;2023-04-03T10:39:46;12.20;82.30
52058;DHT22;38063;53.210;6.504;2023-04-03T10:42:31;12.30;83.20
52058;DHT22;38063;53.210;6.504;2023-04-03T10:53:47;12.10;74.10
52058;DHT22;38063;53.210;6.504;2023-04-03T10:56:47;12.20;74.30
52058;DHT22;38063;53.210;6.504;2023-04-03T10:59:18;12.30;75.70
52058;DHT22;38063;53.210;6.504;2023-04-03T11:01:51;12.40;75.50
52058;DHT22;38063;53.210;6.504;2023-04-03T11:04:23;12.30;73.20
52058;DHT22;38063;53.210;6.504;2023-04-03T11:07:02;12.30;72.20
52058;DHT22;38063;53.210;6.504;2023-04-03T11:09:35;12.20;71.10
52058;DHT22;38063;53.210;6.504;2023-04-03T11:12:28;12.20;71.30
52058;DHT22;38063;53.210;6.504;2023-04-03T11:14:59;12.30;69.90
52058;DHT22;38063;53.210;6.504;2023-04-03T11:17:39;12.30;71.50
52058;DHT22;38063;53.210;6.504;2023-04-03T11:20:16;12.30;71.50
52058;DHT22;38063;53.210;6.504;2023-04-03T11:22:47;12.30;71.30
52058;DHT22;38063;53.210;6.504;2023-04-03T11:25:19;12.00;70.70
52058;DHT22;38063;53.210;6.504;2023-04-03T11:27:58;12.00;70.00
52058;DHT22;38063;53.210;6.504;2023-04-03T11:31:18;12.00;68.80
52058;DHT22;38063;53.210;6.504;2023-04-03T11:36:23;11.90;70.30
52058;DHT22;38063;53.210;6.504;2023-04-03T11:38:53;12.20;71.30
52058;DHT22;38063;53.210;6.504;2023-04-03T11:41:26;12.20;70.90
52058;DHT22;38063;53.210;6.504;2023-04-03T11:44:03;12.50;70.50
52058;DHT22;38063;53.210;6.504;2023-04-03T11:46:58;12.40;68.50
52058;DHT22;38063;53.210;6.504;2023-04-03T11:50:00;12.40;66.70
52058;DHT22;38063;53.210;6.504;2023-04-03T11:58:03;12.00;66.50
52058;DHT22;38063;53.210;6.504;2023-04-03T12:32:40;11.80;69.40
52058;DHT22;38063;53.210;6.504;2023-04-03T12:35:31;12.00;69.50
52058;DHT22;38063;53.210;6.504;2023-04-03T12:41:43;11.80;68.40
52058;DHT22;38063;53.210;6.504;2023-04-03T12:46:52;11.70;67.80
52058;DHT22;38063;53.210;6.504;2023-04-03T12:49:57;11.80;68.10
52058;DHT22;38063;53.210;6.504;2023-04-03T12:54:54;11.90;67.40
52058;DHT22;38063;53.210;6.504;2023-04-03T12:57:24;11.90;68.10
52058;DHT22;38063;53.210;6.504;2023-04-03T12:59:50;11.90;66.90
52058;DHT22;38063;53.210;6.504;2023-04-03T13:02:31;12.00;66.80
52058;DHT22;38063;53.210;6.504;2023-04-03T13:05:06;12.00;66.30
52058;DHT22;38063;53.210;6.504;2023-04-03T13:07:37;11.90;65.60
52058;DHT22;38063;53.210;6.504;2023-04-03T13:12:55;11.50;66.30
52058;DHT22;38063;53.210;6.504;2023-04-03T13:15:40;11.30;66.20
52058;DHT22;38063;53.210;6.504;2023-04-03T13:18:22;11.20;64.80
52058;DHT22;38063;53.210;6.504;2023-04-03T13:20:49;11.30;66.80
52058;DHT22;38063;53.210;6.504;2023-04-03T13:23:17;11.50;68.00
52058;DHT22;38063;53.210;6.504;2023-04-03T13:25:46;11.80;67.30
52058;DHT22;38063;53.210;6.504;2023-04-03T13:28:17;11.70;65.10
52058;DHT22;38063;53.210;6.504;2023-04-03T13:31:02;11.90;65.10
52058;DHT22;38063;53.210;6.504;2023-04-03T13:33:31;11.70;65.40
52058;DHT22;38063;53.210;6.504;2023-04-03T13:36:19;11.70;66.70
52058;DHT22;38063;53.210;6.504;2023-04-03T13:38:46;11.50;65.00
52058;DHT22;38063;53.210;6.504;2023-04-03T13:41:35;11.40;66.40
52058;DHT22;38063;53.210;6.504;2023-04-03T13:46:50;11.70;66.10
52058;DHT22;38063;53.210;6.504;2023-04-03T13:49:36;11.70;67.00
52058;DHT22;38063;53.210;6.504;2023-04-03T13:52:17;11.90;65.80
52058;DHT22;38063;53.210;6.504;2023-04-03T13:54:52;11.70;65.00
52058;DHT22;38063;53.210;6.504;2023-04-03T13:57:19;11.50;66.10
52058;DHT22;38063;53.210;6.504;2023-04-03T13:59:46;11.60;67.10
52058;DHT22;38063;53.210;6.504;2023-04-03T14:02:38;11.60;66.80
52058;DHT22;38063;53.210;6.504;2023-04-03T14:05:03;11.50;66.40
52058;DHT22;38063;53.210;6.504;2023-04-03T14:07:31;11.50;67.40
52058;DHT22;38063;53.210;6.504;2023-04-03T14:09:57;11.40;68.80
52058;DHT22;38063;53.210;6.504;2023-04-03T14:12:38;11.50;69.00
52058;DHT22;38063;53.210;6.504;2023-04-03T14:15:18;11.40;70.50
52058;DHT22;38063;53.210;6.504;2023-04-03T14:17:44;11.40;69.30
52058;DHT22;38063;53.210;6.504;2023-04-03T14:20:18;11.30;70.40
52058;DHT22;38063;53.210;6.504;2023-04-03T14:22:44;11.10;69.60
52058;DHT22;38063;53.210;6.504;2023-04-03T14:25:10;11.10;70.50
52058;DHT22;38063;53.210;6.504;2023-04-03T14:27:42;10.90;70.10
52058;DHT22;38063;53.210;6.504;2023-04-03T14:32:44;10.80;71.30
52058;DHT22;38063;53.210;6.504;2023-04-03T14:35:10;10.80;70.90
52058;DHT22;38063;53.210;6.504;2023-04-03T14:37:36;10.70;71.10
52058;DHT22;38063;53.210;6.504;2023-04-03T14:40:03;10.60;71.20
52058;DHT22;38063;53.210;6.504;2023-04-03T14:42:32;10.50;71.40
52058;DHT22;38063;53.210;6.504;2023-04-03T14:45:00;10.40;72.20
52058;DHT22;38063;53.210;6.504;2023-04-03T14:47:29;10.50;73.20
52058;DHT22;38063;53.210;6.504;2023-04-03T14:49:55;10.80;73.60
52058;DHT22;38063;53.210;6.504;2023-04-03T14:52:27;10.70;72.80
52058;DHT22;38063;53.210;6.504;2023-04-03T14:54:54;10.80;72.30
52058;DHT22;38063;53.210;6.504;2023-04-03T14:57:23;10.70;72.90
52058;DHT22;38063;53.210;6.504;2023-04-03T14:59:49;10.80;73.50
52058;DHT22;38063;53.210;6.504;2023-04-03T15:02:33;11.00;73.70
52058;DHT22;38063;53.210;6.504;2023-04-03T15:05:00;10.60;73.50
52058;DHT22;38063;53.210;6.504;2023-04-03T15:07:31;10.50;74.40
52058;DHT22;38063;53.210;6.504;2023-04-03T15:10:01;10.40;75.00
52058;DHT22;38063;53.210;6.504;2023-04-03T15:12:27;10.40;75.30
52058;DHT22;38063;53.210;6.504;2023-04-03T15:14:52;10.40;75.40
52058;DHT22;38063;53.210;6.504;2023-04-03T15:17:21;10.30;75.60
52058;DHT22;38063;53.210;6.504;2023-04-03T15:19:47;10.30;76.20
52058;DHT22;38063;53.210;6.504;2023-04-03T15:22:15;10.30;76.40
52058;DHT22;38063;53.210;6.504;2023-04-03T15:24:42;10.30;76.20
52058;DHT22;38063;53.210;6.504;2023-04-03T15:27:09;10.50;75.90
52058;DHT22;38063;53.210;6.504;2023-04-03T15:29:35;10.60;75.10
52058;DHT22;38063;53.210;6.504;2023-04-03T15:32:01;10.20;73.30
52058;DHT22;38063;53.210;6.504;2023-04-03T15:34:28;9.90;72.90
52058;DHT22;38063;53.210;6.504;2023-04-03T15:36:53;9.70;73.50
52058;DHT22;38063;53.210;6.504;2023-04-03T15:39:19;9.70;73.90
52058;DHT22;38063;53.210;6.504;2023-04-03T15:41:46;9.70;74.00
52058;DHT22;38063;53.210;6.504;2023-04-03T15:44:12;9.80;74.10
52058;DHT22;38063;53.210;6.504;2023-04-03T15:46:38;10.20;73.80
52058;DHT22;38063;53.210;6.504;2023-04-03T15:49:05;9.90;73.50
52058;DHT22;38063;53.210;6.504;2023-04-03T15:51:31;9.80;73.70
52058;DHT22;38063;53.210;6.504;2023-04-03T15:53:56;9.80;74.40
52058;DHT22;38063;53.210;6.504;2023-04-03T15:56:22;9.60;74.20
52058;DHT22;38063;53.210;6.504;2023-04-03T15:58:48;9.50;74.20
52058;DHT22;38063;53.210;6.504;2023-04-03T16:01:14;9.40;74.80
52058;DHT22;38063;53.210;6.504;2023-04-03T16:03:42;9.30;75.00
52058;DHT22;38063;53.210;6.504;2023-04-03T16:06:15;9.50;75.00
52058;DHT22;38063;53.210;6.504;2023-04-03T16:08:42;9.30;75.50
52058;DHT22;38063;53.210;6.504;2023-04-03T16:11:08;9.10;75.60
52058;DHT22;38063;53.210;6.504;2023-04-03T16:13:34;9.10;76.10
52058;DHT22;38063;53.210;6.504;2023-04-03T16:16:01;8.90;76.40
52058;DHT22;38063;53.210;6.504;2023-04-03T16:18:30;8.90;76.80
52058;DHT22;38063;53.210;6.504;2023-04-03T16:20:56;8.90;77.30
52058;DHT22;38063;53.210;6.504;2023-04-03T16:23:22;8.80;77.40
52058;DHT22;38063;53.210;6.504;2023-04-03T16:25:48;8.80;77.90
52058;DHT22;38063;53.210;6.504;2023-04-03T16:28:17;8.70;78.00
52058;DHT22;38063;53.210;6.504;2023-04-03T16:30:44;8.50;78.30
52058;DHT22;38063;53.210;6.504;2023-04-03T16:33:11;9.40;79.50
52058;DHT22;38063;53.210;6.504;2023-04-03T16:35:37;8.40;79.20
52058;DHT22;38063;53.210;6.504;2023-04-03T16:38:03;8.40;79.70
52058;DHT22;38063;53.210;6.504;2023-04-03T16:40:29;8.40;80.30
52058;DHT22;38063;53.210;6.504;2023-04-03T16:42:54;8.50;80.60
52058;DHT22;38063;53.210;6.504;2023-04-03T16:45:20;9.10;81.10
52058;DHT22;38063;53.210;6.504;2023-04-03T16:47:46;8.20;80.60
52058;DHT22;38063;53.210;6.504;2023-04-03T16:50:12;8.10;80.60
52058;DHT22;38063;53.210;6.504;2023-04-03T16:52:37;8.00;81.20
52058;DHT22;38063;53.210;6.504;2023-04-03T16:55:03;8.00;81.90
52058;DHT22;38063;53.210;6.504;2023-04-03T16:57:29;7.90;82.30
52058;DHT22;38063;53.210;6.504;2023-04-03T16:59:55;7.80;83.10
52058;DHT22;38063;53.210;6.504;2023-04-03T17:02:21;7.80;83.60
52058;DHT22;38063;53.210;6.504;2023-04-03T17:04:50;7.70;84.10
52058;DHT22;38063;53.210;6.504;2023-04-03T17:07:21;7.70;84.80
52058;DHT22;38063;53.210;6.504;2023-04-03T17:09:47;7.60;85.50
52058;DHT22;38063;53.210;6.504;2023-04-03T17:12:14;7.40;85.40
52058;DHT22;38063;53.210;6.504;2023-04-03T17:14:39;7.30;85.90
52058;DHT22;38063;53.210;6.504;2023-04-03T17:17:06;7.20;86.30
52058;DHT22;38063;53.210;6.504;2023-04-03T17:19:33;7.10;86.60
52058;DHT22;38063;53.210;6.504;2023-04-03T17:21:59;7.00;87.20
52058;DHT22;38063;53.210;6.504;2023-04-03T17:24:25;6.90;88.00
52058;DHT22;38063;53.210;6.504;2023-04-03T17:26:51;6.80;88.70